sensor_id;sensor_type;location;lat;lon;timestamp;pressure;altitude;pressure_sealevel;temperature;humidity
37778;BME280;23615;51.506;7.678;2023-08-06T00:00:22;98993.66;;;15.68;100.00
37778;BME280;23615;51.506;7.678;2023-08-06T00:02:47;98992.34;;;15.65;100.00
37778;BME280;23615;51.506;7.678;2023-08-06T00:05:12;98998.81;;;15.64;100.00
37778;BME280;23615;51.506;7.678;2023-08-06T00:07:38;98989.13;;;15.63;100.00
37778;BME280;23615;51.506;7.678;2023-08-06T00:10:04;98986.44;;;15.63;100.00
37778;BME280;23615;51.506;7.678;2023-08-06T00:12:29;98985.66;;;15.63;100.00
37778;BME280;23615;51.506;7.678;2023-08-06T00:14:54;98977.00;;;15.66;100.00
37778;BME280;23615;51.506;7.678;2023-08-06T00:17:20;98972.66;;;15.70;100.00
37778;BME280;23615;51.506;7.678;2023-08-06T00:19:45;98968.44;;;15.64;100.00
37778;BME280;23615;51.506;7.678;2023-08-06T00:22:10;98973.81;;;15.64;100.00
37778;BME280;23615;51.506;7.678;2023-08-06T00:24:35;98960.88;;;15.66;100.00
37778;BME280;23615;51.506;7.678;2023-08-06T00:27:01;98963.84;;;15.64;100.00
37778;BME280;23615;51.506;7.678;2023-08-06T00:29:27;98958.75;;;15.63;100.00
37778;BME280;23615;51.506;7.678;2023-08-06T00:31:52;98962.47;;;15.67;100.00
37778;BME280;23615;51.506;7.678;2023-08-06T00:34:18;98958.69;;;15.68;100.00
37778;BME280;23615;51.506;7.678;2023-08-06T00:36:43;98968.09;;;15.70;100.00
37778;BME280;23615;51.506;7.678;2023-08-06T00:39:08;98957.09;;;15.67;100.00
37778;BME280;23615;51.506;7.678;2023-08-06T00:41:34;98948.28;;;15.61;100.00
37778;BME280;23615;51.506;7.678;2023-08-06T00:43:59;98948.56;;;15.60;100.00
37778;BME280;23615;51.506;7.678;2023-08-06T00:46:24;98946.13;;;15.63;100.00
37778;BME280;23615;51.506;7.678;2023-08-06T00:48:50;98943.16;;;15.65;100.00
37778;BME280;23615;51.506;7.678;2023-08-06T00:51:16;98942.34;;;15.64;100.00
37778;BME280;23615;51.506;7.678;2023-08-06T00:53:42;98946.41;;;15.62;100.00
37778;BME280;23615;51.506;7.678;2023-08-06T00:56:08;98940.75;;;15.63;100.00
37778;BME280;23615;51.506;7.678;2023-08-06T00:58:35;98936.44;;;15.62;100.00
37778;BME280;23615;51.506;7.678;2023-08-06T01:01:01;98938.59;;;15.60;100.00
37778;BME280;23615;51.506;7.678;2023-08-06T01:03:26;98942.84;;;15.66;100.00
37778;BME280;23615;51.506;7.678;2023-08-06T01:05:52;98941.56;;;15.59;100.00
37778;BME280;23615;51.506;7.678;2023-08-06T01:08:28;98932.22;;;15.56;100.00
37778;BME280;23615;51.506;7.678;2023-08-06T01:11:17;98926.81;;;15.51;100.00
37778;BME280;23615;51.506;7.678;2023-08-06T01:13:47;98916.34;;;15.50;100.00
37778;BME280;23615;51.506;7.678;2023-08-06T01:16:19;98916.63;;;15.48;100.00
37778;BME280;23615;51.506;7.678;2023-08-06T01:18:47;98912.06;;;15.49;100.00
37778;BME280;23615;51.506;7.678;2023-08-06T01:21:17;98909.09;;;15.50;100.00
37778;BME280;23615;51.506;7.678;2023-08-06T01:23:43;98910.97;;;15.50;100.00
37778;BME280;23615;51.506;7.678;2023-08-06T01:26:23;98907.25;;;15.46;100.00
37778;BME280;23615;51.506;7.678;2023-08-06T01:29:03;98905.88;;;15.48;100.00
37778;BME280;23615;51.506;7.678;2023-08-06T01:31:37;98908.88;;;15.47;100.00
37778;BME280;23615;51.506;7.678;2023-08-06T01:34:05;98902.69;;;15.46;100.00
37778;BME280;23615;51.506;7.678;2023-08-06T01:36:31;98895.72;;;15.45;100.00
37778;BME280;23615;51.506;7.678;2023-08-06T01:38:56;98897.31;;;15.46;100.00
37778;BME280;23615;51.506;7.678;2023-08-06T01:41:22;98894.91;;;15.45;100.00
37778;BME280;23615;51.506;7.678;2023-08-06T01:43:48;98888.97;;;15.48;100.00
37778;BME280;23615;51.506;7.678;2023-08-06T01:46:13;98884.72;;;15.42;100.00
37778;BME280;23615;51.506;7.678;2023-08-06T01:48:38;98886.31;;;15.43;100.00
37778;BME280;23615;51.506;7.678;2023-08-06T01:51:04;98890.34;;;15.45;100.00
37778;BME280;23615;51.506;7.678;2023-08-06T01:53:30;98884.38;;;15.48;100.00
37778;BME280;23615;51.506;7.678;2023-08-06T01:55:56;98889.75;;;15.48;100.00
37778;BME280;23615;51.506;7.678;2023-08-06T01:58:22;98890.84;;;15.47;100.00
37778;BME280;23615;51.506;7.678;2023-08-06T02:00:47;98896.44;;;15.51;100.00
37778;BME280;23615;51.506;7.678;2023-08-06T02:03:13;98894.56;;;15.51;100.00
37778;BME280;23615;51.506;7.678;2023-08-06T02:05:38;98891.88;;;15.51;100.00
37778;BME280;23615;51.506;7.678;2023-08-06T02:08:03;98892.16;;;15.50;100.00
37778;BME280;23615;51.506;7.678;2023-08-06T02:10:29;98900.75;;;15.57;100.00
37778;BME280;23615;51.506;7.678;2023-08-06T02:12:54;98899.06;;;15.61;100.00
37778;BME280;23615;51.506;7.678;2023-08-06T02:15:19;98903.63;;;15.65;100.00
37778;BME280;23615;51.506;7.678;2023-08-06T02:17:44;98904.47;;;15.61;100.00
37778;BME280;23615;51.506;7.678;2023-08-06T02:20:10;98894.28;;;15.53;100.00
37778;BME280;23615;51.506;7.678;2023-08-06T02:22:35;98887.59;;;15.50;100.00
37778;BME280;23615;51.506;7.678;2023-08-06T02:25:01;98885.50;;;15.42;100.00
37778;BME280;23615;51.506;7.678;2023-08-06T02:27:26;98880.94;;;15.43;100.00
37778;BME280;23615;51.506;7.678;2023-08-06T02:29:51;98874.47;;;15.44;100.00
37778;BME280;23615;51.506;7.678;2023-08-06T02:32:17;98872.94;;;15.38;100.00
37778;BME280;23615;51.506;7.678;2023-08-06T02:34:42;98865.91;;;15.42;100.00
37778;BME280;23615;51.506;7.678;2023-08-06T02:37:07;98861.59;;;15.41;100.00
37778;BME280;23615;51.506;7.678;2023-08-06T02:39:33;98858.91;;;15.41;100.00
37778;BME280;23615;51.506;7.678;2023-08-06T02:41:59;98856.75;;;15.43;100.00
37778;BME280;23615;51.506;7.678;2023-08-06T02:44:27;98854.63;;;15.40;100.00
37778;BME280;23615;51.506;7.678;2023-08-06T02:46:53;98853.03;;;15.39;100.00
37778;BME280;23615;51.506;7.678;2023-08-06T02:49:18;98853.06;;;15.33;100.00
37778;BME280;23615;51.506;7.678;2023-08-06T02:51:46;98847.16;;;15.31;100.00
37778;BME280;23615;51.506;7.678;2023-08-06T02:54:12;98848.78;;;15.32;100.00
37778;BME280;23615;51.506;7.678;2023-08-06T02:56:37;98850.38;;;15.33;100.00
37778;BME280;23615;51.506;7.678;2023-08-06T02:59:03;98852.50;;;15.37;100.00
37778;BME280;23615;51.506;7.678;2023-08-06T03:01:29;98835.81;;;15.40;100.00
37778;BME280;23615;51.506;7.678;2023-08-06T03:03:54;98835.88;;;15.34;100.00
37778;BME280;23615;51.506;7.678;2023-08-06T03:06:20;98835.88;;;15.34;100.00
37778;BME280;23615;51.506;7.678;2023-08-06T03:08:45;98826.47;;;15.32;100.00
37778;BME280;23615;51.506;7.678;2023-08-06T03:11:10;98827.00;;;15.34;100.00
37778;BME280;23615;51.506;7.678;2023-08-06T03:13:35;98821.91;;;15.32;100.00
37778;BME280;23615;51.506;7.678;2023-08-06T03:16:01;98817.41;;;15.28;100.00
37778;BME280;23615;51.506;7.678;2023-08-06T03:18:26;98818.47;;;15.27;100.00
37778;BME280;23615;51.506;7.678;2023-08-06T03:20:52;98819.03;;;15.24;100.00
37778;BME280;23615;51.506;7.678;2023-08-06T03:23:17;98810.16;;;15.23;100.00
37778;BME280;23615;51.506;7.678;2023-08-06T03:25:43;98812.81;;;15.28;100.00
37778;BME280;23615;51.506;7.678;2023-08-06T03:28:09;98805.31;;;15.25;100.00
37778;BME280;23615;51.506;7.678;2023-08-06T03:30:34;98814.19;;;15.26;100.00
37778;BME280;23615;51.506;7.678;2023-08-06T03:32:59;98811.53;;;15.21;100.00
37778;BME280;23615;51.506;7.678;2023-08-06T03:35:25;98817.69;;;15.21;100.00
37778;BME280;23615;51.506;7.678;2023-08-06T03:37:50;98819.38;;;15.17;100.00
37778;BME280;23615;51.506;7.678;2023-08-06T03:40:15;98816.16;;;15.15;100.00
37778;BME280;23615;51.506;7.678;2023-08-06T03:42:40;98808.91;;;15.16;100.00
37778;BME280;23615;51.506;7.678;2023-08-06T03:45:06;98817.75;;;15.16;100.00
37778;BME280;23615;51.506;7.678;2023-08-06T03:47:32;98815.63;;;15.13;100.00
37778;BME280;23615;51.506;7.678;2023-08-06T03:49:57;98809.19;;;15.14;100.00
37778;BME280;23615;51.506;7.678;2023-08-06T03:52:23;98806.28;;;15.11;100.00
37778;BME280;23615;51.506;7.678;2023-08-06T03:54:48;98814.63;;;15.09;100.00
37778;BME280;23615;51.506;7.678;2023-08-06T03:57:13;98806.03;;;15.07;100.00
37778;BME280;23615;51.506;7.678;2023-08-06T03:59:38;98809.25;;;15.09;100.00
37778;BME280;23615;51.506;7.678;2023-08-06T04:02:04;98810.31;;;15.08;100.00
37778;BME280;23615;51.506;7.678;2023-08-06T04:04:29;98807.16;;;15.01;100.00
37778;BME280;23615;51.506;7.678;2023-08-06T04:06:54;98808.78;;;14.97;100.00
37778;BME280;23615;51.506;7.678;2023-08-06T04:09:20;98808.00;;;14.96;100.00
37778;BME280;23615;51.506;7.678;2023-08-06T04:11:45;98804.50;;;14.96;100.00
37778;BME280;23615;51.506;7.678;2023-08-06T04:14:11;98814.44;;;14.95;100.00
37778;BME280;23615;51.506;7.678;2023-08-06T04:16:36;98807.72;;;14.98;100.00
37778;BME280;23615;51.506;7.678;2023-08-06T04:19:01;98803.69;;;14.95;100.00
37778;BME280;23615;51.506;7.678;2023-08-06T04:21:27;98809.31;;;14.99;100.00
37778;BME280;23615;51.506;7.678;2023-08-06T04:23:52;98806.84;;;15.03;100.00
37778;BME280;23615;51.506;7.678;2023-08-06T04:26:17;98798.56;;;14.99;100.00
37778;BME280;23615;51.506;7.678;2023-08-06T04:28:42;98798.78;;;15.03;100.00
37778;BME280;23615;51.506;7.678;2023-08-06T04:31:08;98795.03;;;15.04;100.00
37778;BME280;23615;51.506;7.678;2023-08-06T04:33:34;98800.47;;;14.98;100.00
37778;BME280;23615;51.506;7.678;2023-08-06T04:35:59;98797.78;;;14.98;100.00
37778;BME280;23615;51.506;7.678;2023-08-06T04:38:24;98796.13;;;15.03;100.00
37778;BME280;23615;51.506;7.678;2023-08-06T04:40:50;98792.41;;;14.98;100.00
37778;BME280;23615;51.506;7.678;2023-08-06T04:43:15;98795.09;;;14.98;100.00
37778;BME280;23615;51.506;7.678;2023-08-06T04:45:48;98794.22;;;15.03;100.00
37778;BME280;23615;51.506;7.678;2023-08-06T04:48:14;98794.19;;;15.08;100.00
37778;BME280;23615;51.506;7.678;2023-08-06T04:50:46;98798.78;;;15.08;100.00
37778;BME280;23615;51.506;7.678;2023-08-06T04:53:11;98804.94;;;15.08;100.00
37778;BME280;23615;51.506;7.678;2023-08-06T04:55:37;98800.91;;;15.11;100.00
37778;BME280;23615;51.506;7.678;2023-08-06T04:58:02;98803.25;;;15.17;100.00
37778;BME280;23615;51.506;7.678;2023-08-06T05:00:28;98802.72;;;15.15;100.00
37778;BME280;23615;51.506;7.678;2023-08-06T05:02:53;98800.78;;;15.21;100.00
37778;BME280;23615;51.506;7.678;2023-08-06T05:05:18;98804.78;;;15.23;100.00
37778;BME280;23615;51.506;7.678;2023-08-06T05:07:47;98807.72;;;15.27;100.00
37778;BME280;23615;51.506;7.678;2023-08-06T05:10:13;98808.25;;;15.29;100.00
37778;BME280;23615;51.506;7.678;2023-08-06T05:12:38;98811.50;;;15.26;100.00
37778;BME280;23615;51.506;7.678;2023-08-06T05:15:04;98815.53;;;15.23;100.00
37778;BME280;23615;51.506;7.678;2023-08-06T05:17:29;98817.94;;;15.25;100.00
37778;BME280;23615;51.506;7.678;2023-08-06T05:19:54;98810.69;;;15.25;100.00
37778;BME280;23615;51.506;7.678;2023-08-06T05:22:20;98809.06;;;15.29;100.00
37778;BME280;23615;51.506;7.678;2023-08-06T05:24:45;98813.84;;;15.32;100.00
37778;BME280;23615;51.506;7.678;2023-08-06T05:27:10;98807.38;;;15.33;100.00
37778;BME280;23615;51.506;7.678;2023-08-06T05:29:36;98818.09;;;15.39;100.00
37778;BME280;23615;51.506;7.678;2023-08-06T05:32:01;98818.56;;;15.46;100.00
37778;BME280;23615;51.506;7.678;2023-08-06T05:34:26;98818.78;;;15.49;100.00
37778;BME280;23615;51.506;7.678;2023-08-06T05:36:51;98817.13;;;15.53;100.00
37778;BME280;23615;51.506;7.678;2023-08-06T05:39:17;98816.06;;;15.54;100.00
37778;BME280;23615;51.506;7.678;2023-08-06T05:41:43;98812.78;;;15.57;100.00
37778;BME280;23615;51.506;7.678;2023-08-06T05:44:08;98816.00;;;15.59;100.00
37778;BME280;23615;51.506;7.678;2023-08-06T05:46:33;98814.28;;;15.68;100.00
37778;BME280;23615;51.506;7.678;2023-08-06T05:48:59;98815.63;;;15.71;100.00
37778;BME280;23615;51.506;7.678;2023-08-06T05:51:26;98821.72;;;15.77;100.00
37778;BME280;23615;51.506;7.678;2023-08-06T05:53:51;98814.75;;;15.76;100.00
37778;BME280;23615;51.506;7.678;2023-08-06T05:56:16;98813.94;;;15.75;100.00
37778;BME280;23615;51.506;7.678;2023-08-06T05:58:42;98821.53;;;15.73;100.00
37778;BME280;23615;51.506;7.678;2023-08-06T06:01:07;98821.44;;;15.78;100.00
37778;BME280;23615;51.506;7.678;2023-08-06T06:03:32;98822.78;;;15.81;100.00
37778;BME280;23615;51.506;7.678;2023-08-06T06:06:00;98826.19;;;15.86;100.00
37778;BME280;23615;51.506;7.678;2023-08-06T06:08:26;98818.13;;;15.86;100.00
37778;BME280;23615;51.506;7.678;2023-08-06T06:10:51;98822.69;;;15.86;100.00
37778;BME280;23615;51.506;7.678;2023-08-06T06:13:16;98816.03;;;15.83;100.00
37778;BME280;23615;51.506;7.678;2023-08-06T06:15:41;98820.25;;;15.89;100.00
37778;BME280;23615;51.506;7.678;2023-08-06T06:18:07;98824.31;;;15.87;100.00
37778;BME280;23615;51.506;7.678;2023-08-06T06:20:32;98822.13;;;15.89;100.00
37778;BME280;23615;51.506;7.678;2023-08-06T06:22:58;98822.41;;;15.87;100.00
37778;BME280;23615;51.506;7.678;2023-08-06T06:25:24;98818.81;;;15.97;100.00
37778;BME280;23615;51.506;7.678;2023-08-06T06:27:49;98824.34;;;16.05;100.00
37778;BME280;23615;51.506;7.678;2023-08-06T06:30:14;98817.22;;;16.15;100.00
37778;BME280;23615;51.506;7.678;2023-08-06T06:32:40;98826.47;;;16.08;100.00
37778;BME280;23615;51.506;7.678;2023-08-06T06:35:06;98821.53;;;16.16;100.00
37778;BME280;23615;51.506;7.678;2023-08-06T06:37:31;98822.91;;;16.32;100.00
37778;BME280;23615;51.506;7.678;2023-08-06T06:39:56;98821.16;;;16.41;100.00
37778;BME280;23615;51.506;7.678;2023-08-06T06:42:22;98829.19;;;16.46;100.00
37778;BME280;23615;51.506;7.678;2023-08-06T06:44:48;98835.53;;;16.74;100.00
37778;BME280;23615;51.506;7.678;2023-08-06T06:47:13;98842.22;;;16.76;100.00
37778;BME280;23615;51.506;7.678;2023-08-06T06:49:39;98833.28;;;16.62;100.00
37778;BME280;23615;51.506;7.678;2023-08-06T06:52:04;98834.81;;;16.68;100.00
37778;BME280;23615;51.506;7.678;2023-08-06T06:54:30;98828.97;;;16.80;100.00
37778;BME280;23615;51.506;7.678;2023-08-06T06:56:55;98835.59;;;16.88;100.00
37778;BME280;23615;51.506;7.678;2023-08-06T06:59:20;98825.75;;;16.97;100.00
37778;BME280;23615;51.506;7.678;2023-08-06T07:01:46;98827.19;;;17.08;100.00
37778;BME280;23615;51.506;7.678;2023-08-06T07:04:11;98822.72;;;17.17;100.00
37778;BME280;23615;51.506;7.678;2023-08-06T07:06:37;98826.03;;;17.28;100.00
37778;BME280;23615;51.506;7.678;2023-08-06T07:09:02;98826.53;;;17.30;100.00
37778;BME280;23615;51.506;7.678;2023-08-06T07:11:27;98832.72;;;17.30;100.00
37778;BME280;23615;51.506;7.678;2023-08-06T07:13:57;98833.22;;;17.32;100.00
37778;BME280;23615;51.506;7.678;2023-08-06T07:16:25;98838.50;;;17.24;100.00
37778;BME280;23615;51.506;7.678;2023-08-06T07:18:54;98840.31;;;17.28;100.00
37778;BME280;23615;51.506;7.678;2023-08-06T07:21:20;98841.22;;;17.37;100.00
37778;BME280;23615;51.506;7.678;2023-08-06T07:23:45;98839.75;;;17.45;100.00
37778;BME280;23615;51.506;7.678;2023-08-06T07:26:11;98839.84;;;17.53;100.00
37778;BME280;23615;51.506;7.678;2023-08-06T07:28:36;98843.81;;;17.42;100.00
37778;BME280;23615;51.506;7.678;2023-08-06T07:31:03;98845.31;;;17.48;99.75
37778;BME280;23615;51.506;7.678;2023-08-06T07:33:28;98841.06;;;17.47;98.26
37778;BME280;23615;51.506;7.678;2023-08-06T07:35:54;98845.84;;;17.50;98.59
37778;BME280;23615;51.506;7.678;2023-08-06T07:38:19;98851.63;;;17.57;99.39
37778;BME280;23615;51.506;7.678;2023-08-06T07:40:45;98854.09;;;17.73;99.32
37778;BME280;23615;51.506;7.678;2023-08-06T07:43:10;98853.78;;;17.88;99.49
37778;BME280;23615;51.506;7.678;2023-08-06T07:45:36;98858.69;;;18.00;99.88
37778;BME280;23615;51.506;7.678;2023-08-06T07:48:02;98855.59;;;18.06;100.00
37778;BME280;23615;51.506;7.678;2023-08-06T07:50:27;98851.00;;;18.07;99.95
37778;BME280;23615;51.506;7.678;2023-08-06T07:52:52;98854.38;;;18.12;99.62
37778;BME280;23615;51.506;7.678;2023-08-06T07:55:17;98851.66;;;18.12;99.75
37778;BME280;23615;51.506;7.678;2023-08-06T07:57:43;98860.41;;;18.09;99.47
37778;BME280;23615;51.506;7.678;2023-08-06T08:00:08;98856.59;;;17.97;100.00
37778;BME280;23615;51.506;7.678;2023-08-06T08:02:34;98854.19;;;18.09;100.00
37778;BME280;23615;51.506;7.678;2023-08-06T08:05:00;98852.88;;;18.20;100.00
37778;BME280;23615;51.506;7.678;2023-08-06T08:07:25;98848.97;;;18.26;100.00
37778;BME280;23615;51.506;7.678;2023-08-06T08:09:53;98855.69;;;18.28;100.00
37778;BME280;23615;51.506;7.678;2023-08-06T08:12:18;98854.88;;;18.28;100.00
37778;BME280;23615;51.506;7.678;2023-08-06T08:14:44;98853.16;;;18.32;100.00
37778;BME280;23615;51.506;7.678;2023-08-06T08:17:10;98855.25;;;18.35;99.82
37778;BME280;23615;51.506;7.678;2023-08-06T08:19:36;98852.94;;;18.42;99.29
37778;BME280;23615;51.506;7.678;2023-08-06T08:22:04;98850.84;;;18.39;98.93
37778;BME280;23615;51.506;7.678;2023-08-06T08:24:30;98858.63;;;18.41;98.51
37778;BME280;23615;51.506;7.678;2023-08-06T08:26:56;98849.81;;;18.49;98.20
37778;BME280;23615;51.506;7.678;2023-08-06T08:29:22;98847.91;;;18.49;98.14
37778;BME280;23615;51.506;7.678;2023-08-06T08:31:48;98845.44;;;18.39;97.33
37778;BME280;23615;51.506;7.678;2023-08-06T08:34:16;98844.50;;;18.57;96.77
37778;BME280;23615;51.506;7.678;2023-08-06T08:36:41;98841.50;;;18.73;96.21
37778;BME280;23615;51.506;7.678;2023-08-06T08:39:07;98841.31;;;18.55;94.30
37778;BME280;23615;51.506;7.678;2023-08-06T08:41:33;98839.72;;;18.54;93.23
37778;BME280;23615;51.506;7.678;2023-08-06T08:43:59;98836.81;;;18.64;93.68
37778;BME280;23615;51.506;7.678;2023-08-06T08:46:30;98842.81;;;18.61;93.79
37778;BME280;23615;51.506;7.678;2023-08-06T08:48:58;98844.25;;;18.45;95.52
37778;BME280;23615;51.506;7.678;2023-08-06T08:51:25;98835.03;;;18.32;94.40
37778;BME280;23615;51.506;7.678;2023-08-06T08:53:53;98839.19;;;18.16;94.78
37778;BME280;23615;51.506;7.678;2023-08-06T08:56:20;98840.50;;;18.05;96.16
37778;BME280;23615;51.506;7.678;2023-08-06T08:58:46;98837.59;;;18.15;97.02
37778;BME280;23615;51.506;7.678;2023-08-06T09:01:11;98841.13;;;18.02;97.22
37778;BME280;23615;51.506;7.678;2023-08-06T09:03:37;98855.41;;;18.03;97.27
37778;BME280;23615;51.506;7.678;2023-08-06T09:06:03;98854.69;;;17.70;98.15
37778;BME280;23615;51.506;7.678;2023-08-06T09:08:34;98851.59;;;17.63;98.75
37778;BME280;23615;51.506;7.678;2023-08-06T09:11:02;98860.50;;;17.44;99.48
37778;BME280;23615;51.506;7.678;2023-08-06T09:13:28;98858.22;;;17.38;97.60
37778;BME280;23615;51.506;7.678;2023-08-06T09:15:54;98861.94;;;17.23;96.78
37778;BME280;23615;51.506;7.678;2023-08-06T09:18:26;98868.44;;;17.22;97.16
37778;BME280;23615;51.506;7.678;2023-08-06T09:20:54;98868.34;;;16.95;99.45
37778;BME280;23615;51.506;7.678;2023-08-06T09:23:19;98869.91;;;16.82;100.00
37778;BME280;23615;51.506;7.678;2023-08-06T09:25:45;98866.00;;;17.07;100.00
37778;BME280;23615;51.506;7.678;2023-08-06T09:28:11;98872.06;;;16.99;100.00
37778;BME280;23615;51.506;7.678;2023-08-06T09:30:37;98868.66;;;16.74;100.00
37778;BME280;23615;51.506;7.678;2023-08-06T09:33:03;98876.81;;;16.88;100.00
37778;BME280;23615;51.506;7.678;2023-08-06T09:35:30;98875.13;;;16.92;100.00
37778;BME280;23615;51.506;7.678;2023-08-06T09:38:05;98879.63;;;16.97;100.00
37778;BME280;23615;51.506;7.678;2023-08-06T09:40:32;98876.41;;;16.95;100.00
37778;BME280;23615;51.506;7.678;2023-08-06T09:42:58;98879.34;;;16.98;100.00
37778;BME280;23615;51.506;7.678;2023-08-06T09:45:35;98880.50;;;17.11;100.00
37778;BME280;23615;51.506;7.678;2023-08-06T09:48:08;98893.03;;;17.20;100.00
37778;BME280;23615;51.506;7.678;2023-08-06T09:50:36;98880.81;;;17.23;100.00
37778;BME280;23615;51.506;7.678;2023-08-06T09:53:02;98884.97;;;17.34;100.00
37778;BME280;23615;51.506;7.678;2023-08-06T09:55:28;98880.59;;;17.38;100.00
37778;BME280;23615;51.506;7.678;2023-08-06T09:57:54;98878.97;;;17.37;100.00
37778;BME280;23615;51.506;7.678;2023-08-06T10:00:20;98881.06;;;17.40;100.00
37778;BME280;23615;51.506;7.678;2023-08-06T10:02:46;98888.41;;;17.53;100.00
37778;BME280;23615;51.506;7.678;2023-08-06T10:05:12;98888.28;;;17.58;100.00
37778;BME280;23615;51.506;7.678;2023-08-06T10:07:37;98886.75;;;17.71;100.00
37778;BME280;23615;51.506;7.678;2023-08-06T10:10:06;98897.25;;;17.86;100.00
37778;BME280;23615;51.506;7.678;2023-08-06T10:12:34;98895.97;;;17.84;100.00
37778;BME280;23615;51.506;7.678;2023-08-06T10:15:04;98885.28;;;17.92;100.00
37778;BME280;23615;51.506;7.678;2023-08-06T10:17:31;98887.59;;;17.99;100.00
37778;BME280;23615;51.506;7.678;2023-08-06T10:19:58;98892.00;;;18.09;100.00
37778;BME280;23615;51.506;7.678;2023-08-06T10:22:24;98882.16;;;18.13;100.00
37778;BME280;23615;51.506;7.678;2023-08-06T10:24:54;98881.78;;;18.19;100.00
37778;BME280;23615;51.506;7.678;2023-08-06T10:27:28;98879.06;;;18.33;100.00
37778;BME280;23615;51.506;7.678;2023-08-06T10:29:54;98878.34;;;18.41;100.00
37778;BME280;23615;51.506;7.678;2023-08-06T10:32:19;98875.25;;;18.48;100.00
37778;BME280;23615;51.506;7.678;2023-08-06T10:34:56;98878.25;;;18.60;100.00
37778;BME280;23615;51.506;7.678;2023-08-06T10:37:22;98878.66;;;18.89;100.00
37778;BME280;23615;51.506;7.678;2023-08-06T10:39:51;98881.28;;;19.03;100.00
37778;BME280;23615;51.506;7.678;2023-08-06T10:42:27;98872.84;;;19.18;100.00
37778;BME280;23615;51.506;7.678;2023-08-06T10:47:40;98870.16;;;19.49;100.00
37778;BME280;23615;51.506;7.678;2023-08-06T10:50:11;98869.00;;;19.64;100.00
37778;BME280;23615;51.506;7.678;2023-08-06T10:52:37;98864.56;;;19.76;98.83
37778;BME280;23615;51.506;7.678;2023-08-06T10:55:03;98862.00;;;19.71;98.14
37778;BME280;23615;51.506;7.678;2023-08-06T10:57:28;98865.81;;;19.70;99.07
37778;BME280;23615;51.506;7.678;2023-08-06T10:59:53;98877.09;;;19.64;98.61
37778;BME280;23615;51.506;7.678;2023-08-06T11:02:19;98874.84;;;19.35;93.20
37778;BME280;23615;51.506;7.678;2023-08-06T11:04:44;98875.84;;;19.39;91.64
37778;BME280;23615;51.506;7.678;2023-08-06T11:07:09;98876.50;;;19.22;92.31
37778;BME280;23615;51.506;7.678;2023-08-06T11:09:35;98875.22;;;18.97;91.96
37778;BME280;23615;51.506;7.678;2023-08-06T11:12:00;98867.41;;;18.96;91.19
37778;BME280;23615;51.506;7.678;2023-08-06T11:14:25;98869.81;;;18.97;89.92
37778;BME280;23615;51.506;7.678;2023-08-06T11:16:51;98867.16;;;19.06;90.93
37778;BME280;23615;51.506;7.678;2023-08-06T11:19:16;98872.50;;;18.97;91.05
37778;BME280;23615;51.506;7.678;2023-08-06T11:21:43;98872.88;;;19.04;90.89
37778;BME280;23615;51.506;7.678;2023-08-06T11:24:10;98873.97;;;19.03;90.12
37778;BME280;23615;51.506;7.678;2023-08-06T11:26:36;98883.06;;;18.85;93.31
37778;BME280;23615;51.506;7.678;2023-08-06T11:29:02;98876.56;;;18.86;92.60
37778;BME280;23615;51.506;7.678;2023-08-06T11:31:28;98882.34;;;18.57;93.08
37778;BME280;23615;51.506;7.678;2023-08-06T11:33:55;98883.75;;;18.41;93.35
37778;BME280;23615;51.506;7.678;2023-08-06T11:38:56;98888.16;;;18.37;93.99
37778;BME280;23615;51.506;7.678;2023-08-06T11:41:22;98885.28;;;18.20;93.26
37778;BME280;23615;51.506;7.678;2023-08-06T11:43:49;98887.06;;;18.24;91.86
37778;BME280;23615;51.506;7.678;2023-08-06T11:46:14;98883.88;;;18.09;93.52
37778;BME280;23615;51.506;7.678;2023-08-06T11:48:56;98875.19;;;17.98;93.69
37778;BME280;23615;51.506;7.678;2023-08-06T11:51:25;98889.47;;;17.99;94.63
37778;BME280;23615;51.506;7.678;2023-08-06T11:53:55;98883.16;;;18.03;94.00
37778;BME280;23615;51.506;7.678;2023-08-06T11:56:21;98888.38;;;18.00;91.75
37778;BME280;23615;51.506;7.678;2023-08-06T11:58:47;98889.78;;;17.83;93.06
37778;BME280;23615;51.506;7.678;2023-08-06T12:01:13;98887.06;;;17.70;93.68
37778;BME280;23615;51.506;7.678;2023-08-06T12:03:39;98887.56;;;17.72;93.96
37778;BME280;23615;51.506;7.678;2023-08-06T12:06:05;98898.34;;;17.85;93.23
37778;BME280;23615;51.506;7.678;2023-08-06T12:08:30;98891.38;;;17.84;93.03
37778;BME280;23615;51.506;7.678;2023-08-06T12:10:56;98893.75;;;17.72;94.02
37778;BME280;23615;51.506;7.678;2023-08-06T12:13:21;98894.97;;;17.80;94.48
37778;BME280;23615;51.506;7.678;2023-08-06T12:15:46;98893.97;;;17.89;93.67
37778;BME280;23615;51.506;7.678;2023-08-06T12:18:12;98898.28;;;17.90;93.95
37778;BME280;23615;51.506;7.678;2023-08-06T12:20:37;98900.56;;;17.97;94.38
37778;BME280;23615;51.506;7.678;2023-08-06T12:23:03;98899.16;;;17.86;94.57
37778;BME280;23615;51.506;7.678;2023-08-06T12:25:29;98910.16;;;17.89;95.58
37778;BME280;23615;51.506;7.678;2023-08-06T12:27:54;98902.88;;;18.17;94.95
37778;BME280;23615;51.506;7.678;2023-08-06T12:30:19;98908.78;;;18.06;96.58
37778;BME280;23615;51.506;7.678;2023-08-06T12:32:44;98900.78;;;18.14;96.47
37778;BME280;23615;51.506;7.678;2023-08-06T12:35:10;98904.19;;;18.20;95.50
37778;BME280;23615;51.506;7.678;2023-08-06T12:37:36;98910.06;;;18.22;96.35
37778;BME280;23615;51.506;7.678;2023-08-06T12:40:03;98915.97;;;18.24;97.61
37778;BME280;23615;51.506;7.678;2023-08-06T12:42:29;98905.25;;;18.32;96.21
37778;BME280;23615;51.506;7.678;2023-08-06T12:44:54;98904.16;;;18.33;96.15
37778;BME280;23615;51.506;7.678;2023-08-06T12:47:19;98902.72;;;18.50;95.98
37778;BME280;23615;51.506;7.678;2023-08-06T12:49:45;98900.06;;;18.63;95.97
37778;BME280;23615;51.506;7.678;2023-08-06T12:52:10;98907.31;;;18.77;94.78